• Join FlightAware (Why Join?)
  • Login
  • US Flag 
06:50PM EST


 

Airport Tracker/Info


-or-


 

Live Flight TrackerFlight Track Log ✈ ASQ5685 ✈ 22-Jul-2013 ✈ KATL - KIAD

Flight Track Log - Related Links

Times and Time Zones

All times are in EDT time to prevent confusion due to time zone crossing. See the ASQ5685 flight status page for this flight to view local times or setup timezone preferences in your user account.

Time Position Orientation Groundspeed Altitude Reporting Facility
EDT Latitude Longitude Course Direction KTS MPH feet Rate Location/Type
09:27AM 33.6306 -84.4806 48° Northeast 414 476 2,700  Level Atlanta Center
09:28AM 33.6053 -84.5403 243° Southwest 315 362 4,200 1,620 Climbing Atlanta Center
09:29AM 33.8566 -84.1665 73° East  Level Estimated
09:29AM 33.5675 -84.5922 229° Southwest 232 267 6,000  Level Atlanta Center
09:30AM 33.9298 -84.0791 54° Northeast  Level Estimated
09:30AM 33.4883 -84.5794 172° South 280 322 8,200  Level Atlanta Center
09:31AM 33.9042 -83.9588 104° East  Level FlightAware Approximate
09:31AM 33.4553 -84.4944 115° Southeast 272 313 10,200  Level Atlanta Center
09:32AM 33.9782 -83.8723 48° Northeast  Level Estimated
09:32AM 33.4556 -84.3850 90° East 280 322 11,800  Level Atlanta Center
09:33AM 33.4747 -84.2728 78° East 349 402 12,900 1,020 Climbing Atlanta Center
09:34AM 33.5625 -84.2083 31° Northeast 333 383 13,900 960 Climbing Atlanta Center
09:35AM 33.6544 -84.1461 29° Northeast 360 414 14,900 960 Climbing Atlanta Center
09:36AM 33.7442 -84.0739 34° Northeast 385 443 15,900 1,020 Climbing Atlanta Center
09:37AM 33.8025 -83.9614 58° Northeast 399 459 17,000 960 Climbing Atlanta Center
09:38AM 33.8608 -83.8461 59° Northeast 394 453 17,900 780 Climbing Atlanta Center
09:39AM 33.9192 -83.7333 58° Northeast 394 453 18,600 660 Climbing Atlanta Center
09:40AM 33.9939 -83.6153 53° Northeast 401 461 19,300 660 Climbing Atlanta Center
09:41AM 34.0622 -83.5022 54° Northeast 409 471 20,000 600 Climbing Atlanta Center
09:42AM 34.1347 -83.3889 52° Northeast 414 476 20,500 480 Climbing Atlanta Center
09:44AM 34.2171 -83.2327 52° Northeast  Level FlightAware Approximate
09:44AM 34.2753 -83.1639 52° Northeast 427 491 21,500  Level Atlanta Center
09:45AM 34.3453 -83.0425 55° Northeast 427 491 22,000 1,020 Climbing Atlanta Center
09:47AM 34.4875 -82.8217 52° Northeast 412 474 24,600 1,020 Climbing Atlanta Center
09:48AM 34.5550 -82.7097 54° Northeast 412 474 25,100 480 Climbing Atlanta Center
09:49AM 34.6228 -82.6000 53° Northeast 417 480 25,600 420 Climbing Atlanta Center
09:50AM 34.6861 -82.5003 52° Northeast 409 471 26,000 420 Climbing Atlanta Center
09:51AM 34.7556 -82.3853 54° Northeast 414 476 26,500 480 Climbing Atlanta Center
09:52AM 34.8250 -82.2753 52° Northeast 414 476 27,000 480 Climbing Atlanta Center
09:53AM 34.8944 -82.1597 54° Northeast 414 476 27,500 540 Climbing Atlanta Center
09:54AM 34.9717 -82.0311 54° Northeast 419 482 28,100 540 Climbing Atlanta Center
09:55AM 35.0428 -81.9178 53° Northeast 413 475 28,600 480 Climbing Atlanta Center
09:56AM 35.1053 -81.7969 58° Northeast 419 482 29,100 480 Climbing Atlanta Center
09:57AM 35.1678 -81.6783 57° Northeast 419 482 29,600 480 Climbing Atlanta Center
09:58AM 35.2300 -81.5597 57° Northeast 414 476 30,100 480 Climbing Atlanta Center
09:59AM 35.2903 -81.4408 58° Northeast 419 482 30,600 420 Climbing Atlanta Center
10:00AM 35.3522 -81.3217 57° Northeast 419 482 31,000 180 Climbing Atlanta Center
10:01AM 35.4142 -81.2000 58° Northeast 419 482 31,000  Level Atlanta Center
10:02AM 35.4781 -81.0753 58° Northeast 424 488 31,000  Level Atlanta Center
10:03AM 35.5458 -80.9503 56° Northeast 424 488 31,000  Level Atlanta Center
10:04AM 35.6094 -80.8253 58° Northeast 424 488 31,000 -180 Level Atlanta Center
10:05AM 35.6750 -80.7025 57° Northeast 424 488 30,700 -420 Descending Atlanta Center
10:06AM 35.7403 -80.5747 58° Northeast 424 488 30,200 -540 Descending Atlanta Center
10:08AM 35.9022 -80.2592 58° Northeast 460 529 29,000 -360 Descending Washington Center
10:09AM 35.9722 -80.1219 58° Northeast 460 529 29,000  Level Washington Center
10:11AM 36.0375 -79.9972 57° Northeast 454 522 29,000  Level Washington Center
10:11AM 36.1089 -79.8675 56° Northeast 449 517 29,000  Level Washington Center
10:12AM 36.1825 -79.7325 56° Northeast 458 527 29,000  Level Washington Center
10:13AM 36.2642 -79.5978 53° Northeast 452 520 29,000 -240 Level Washington Center
10:15AM 36.3244 -79.4822 57° Northeast 446 513 28,600 -660 Descending Washington Center
10:16AM 36.4197 -79.3089 56° Northeast 456 525 27,600 -1,320 Descending Washington Center
10:17AM 36.4969 -79.1706 55° Northeast 469 540 26,100 -1,500 Descending Washington Center
10:18AM 36.5714 -79.0497 52° Northeast 481 554 24,700 -1,080 Descending Washington Center
10:19AM 36.6461 -78.9158 55° Northeast 481 554 24,000 -360 Descending Washington Center
10:20AM 36.7189 -78.7764 57° Northeast 474 545 24,000  Level Washington Center
10:21AM 36.7889 -78.6497 55° Northeast 462 532 24,000  Level Washington Center
10:22AM 36.8675 -78.5075 55° Northeast 455 524 24,000  Level Washington Center
10:23AM 36.9353 -78.3828 56° Northeast 450 518 24,000  Level Washington Center
10:24AM 37.0092 -78.2475 56° Northeast 455 524 24,000  Level Washington Center
10:25AM 37.1072 -78.1544 37° Northeast 442 509 24,000  Level Washington Center
10:26AM 37.2175 -78.0719 31° Northeast 447 514 24,000  Level Washington Center
10:27AM 37.3256 -77.9867 32° Northeast 452 520 24,000 -300 Level Washington Center
10:28AM 37.4378 -77.9039 30° Northeast 458 527 23,500 -1,020 Descending Washington Center
10:29AM 37.5478 -77.8208 31° Northeast 458 527 22,000 -1,320 Descending Washington Center
10:30AM 37.6575 -77.7533 26° Northeast 446 513 20,900 -2,040 Descending Washington Center
10:31AM 37.7669 -77.6908 24° Northeast 433 498 18,100 -2,700 Descending Washington Center
10:32AM 37.8681 -77.6303 25° Northeast 416 479 15,700 -2,220 Descending Washington Center
10:33AM 37.9586 -77.5750 26° Northeast 387 445 13,700 -1,800 Descending Washington Center
10:34AM 38.0428 -77.5297 23° Northeast 362 417 12,100 -1,560 Descending Washington Center
10:35AM 38.1228 -77.4842 24° Northeast 324 373 10,600 -1,080 Descending Washington Center
10:36AM 38.1986 -77.4386 25° Northeast 302 348 10,000 -360 Descending Washington Center
10:37AM 38.2744 -77.3928 25° Northeast 297 342 10,000 -480 Level Washington Center
10:38AM 38.3561 -77.3764 North 297 342 9,100 -1,260 Descending Washington Center
10:39AM 38.4331 -77.3728 North 289 333 7,600 -1,500 Descending Washington Center
10:40AM 38.5144 -77.3694 North 289 333 6,200 -1,380 Descending Washington Center
10:41AM 38.6333 -77.3667 North 280 322 4,200 -900 Descending Potomac TRACON
10:42AM 38.7167 -77.3667 360° North 274 315 4,000 -120 Descending Potomac TRACON
10:43AM 38.7833 -77.3500 11° North 281 323 4,000  Level Potomac TRACON
10:44AM 38.8667 -77.3500 360° North 276 318 4,000  Level Potomac TRACON
10:45AM 38.9500 -77.3500 360° North 275 316 4,000 -480 Level Potomac TRACON
10:46AM 39.0167 -77.3500 360° North 266 306 3,100 -540 Descending Potomac TRACON
10:47AM 39.0833 -77.3500 360° North 212 244 3,000 -60 Descending Potomac TRACON
10:48AM 39.1333 -77.3500 360° North 207 238 3,000 -120 Level Potomac TRACON
10:49AM 39.1667 -77.4000 311° West 211 243 2,800 -540 Descending Potomac TRACON
10:50AM 39.1333 -77.4333 218° Southwest 195 224 2,000 -480 Descending Potomac TRACON
10:51AM 39.0833 -77.4333 180° South 193 222 2,000  Level Potomac TRACON